Time;durP1;ratioP1;P1;durP2;ratioP2;P2;SDS_P1;SDS_P2;PMS_P1;PMS_P2;Temp;Humidity;BMP_temperature;BMP_pressure;BME280_temperature;BME280_humidity;BME280_pressure;Samples;Min_cycle;Max_cycle;Signal;HPM_P1;HPM_P2
2022/04/02 00:00:56;;;;;;;7.18;4.10;;;1.30;99.90;;;;;;5010446;28;20054;-63
2022/04/02 00:03:24;;;;;;;10.05;4.38;;;1.30;99.90;;;;;;5009810;28;20056;-62
2022/04/02 00:05:52;;;;;;;9.35;4.07;;;1.20;99.90;;;;;;5010337;28;20041;-64
2022/04/02 00:08:20;;;;;;;9.07;4.82;;;1.20;99.90;;;;;;4992842;28;20057;-63
2022/04/02 00:10:48;;;;;;;9.18;4.80;;;1.20;99.90;;;;;;5008203;28;20058;-63
2022/04/02 00:13:16;;;;;;;11.65;5.15;;;1.10;99.90;;;;;;4975907;28;20108;-63
2022/04/02 00:15:45;;;;;;;11.50;4.85;;;1.10;99.90;;;;;;5009845;28;20405;-63
2022/04/02 00:18:12;;;;;;;6.80;4.45;;;1.10;99.90;;;;;;5009908;28;20056;-63
2022/04/02 00:20:40;;;;;;;7.50;4.55;;;1.10;99.90;;;;;;4992151;28;20425;-64
2022/04/02 00:25:54;;;;;;;10.98;5.40;;;1.10;99.90;;;;;;5010034;28;20052;-63
2022/04/02 00:28:22;;;;;;;9.45;4.93;;;1.00;99.90;;;;;;5010354;28;20056;-62
2022/04/02 00:30:49;;;;;;;7.18;4.55;;;1.10;99.90;;;;;;5010065;28;20417;-62
2022/04/02 00:33:17;;;;;;;7.18;4.75;;;1.00;99.90;;;;;;5008935;28;20054;-63
2022/04/02 00:35:45;;;;;;;8.13;4.28;;;1.10;99.90;;;;;;4991602;28;20050;-62
2022/04/02 00:38:12;;;;;;;9.73;5.07;;;1.10;99.90;;;;;;5009105;28;21488;-62
2022/04/02 00:40:43;;;;;;;10.18;5.28;;;1.10;99.90;;;;;;5010066;28;20056;-62
2022/04/02 00:43:24;;;;;;;13.50;5.57;;;1.10;99.90;;;;;;5009736;28;20046;-64
2022/04/02 00:45:54;;;;;;;6.93;4.75;;;1.10;99.90;;;;;;5009392;28;20069;-63
2022/04/02 00:48:23;;;;;;;;;;;1.00;99.90;;;;;;5008032;28;20084;-62
2022/04/02 00:50:55;;;;;;;12.98;6.03;;;1.00;99.90;;;;;;5002830;28;19921;-63
2022/04/02 00:53:31;;;;;;;11.32;4.75;;;0.90;99.90;;;;;;5009306;28;20054;-63
2022/04/02 00:55:59;;;;;;;17.65;6.20;;;0.90;99.90;;;;;;4980365;28;20034;-63
2022/04/02 00:58:29;;;;;;;;;;;0.80;99.90;;;;;;5001756;28;20042;-62
2022/04/02 01:00:58;;;;;;;13.48;5.13;;;0.80;99.90;;;;;;4998316;28;19922;-63
2022/04/02 01:03:35;;;;;;;10.35;5.20;;;0.80;99.90;;;;;;4995637;28;20232;-64
2022/04/02 01:06:04;;;;;;;11.90;5.93;;;0.70;99.90;;;;;;4987205;28;20548;-65
2022/04/02 01:08:37;;;;;;;15.07;5.22;;;0.70;99.90;;;;;;4983612;28;20045;-66
2022/04/02 01:11:07;;;;;;;11.90;5.35;;;0.70;99.90;;;;;;4990481;28;20608;-64
2022/04/02 01:13:35;;;;;;;11.85;5.97;;;0.70;99.90;;;;;;5004356;28;20235;-65
2022/04/02 01:16:08;;;;;;;9.43;5.03;;;0.70;99.90;;;;;;4976348;28;20486;-63
2022/04/02 01:18:40;;;;;;;13.48;6.03;;;0.70;99.90;;;;;;4986076;28;20049;-63
2022/04/02 01:21:11;;;;;;;13.60;6.82;;;0.80;99.90;;;;;;4996282;28;20551;-64
2022/04/02 01:23:45;;;;;;;10.80;5.97;;;0.80;99.90;;;;;;4988758;28;20424;-63
2022/04/02 01:26:19;;;;;;;9.10;5.13;;;0.80;99.90;;;;;;4975870;28;20061;-62
2022/04/02 01:28:56;;;;;;;11.93;5.47;;;0.90;99.90;;;;;;4991415;28;20054;-66
2022/04/02 01:31:30;;;;;;;16.75;7.05;;;0.90;99.90;;;;;;4986063;28;20033;-67
2022/04/02 01:34:00;;;;;;;14.68;5.63;;;1.00;99.90;;;;;;5011605;28;20050;-67
2022/04/02 01:36:31;;;;;;;17.13;5.72;;;1.00;99.90;;;;;;4992519;28;20390;-65
2022/04/02 01:39:15;;;;;;;23.35;5.95;;;1.10;99.90;;;;;;5008191;28;20042;-66
2022/04/02 01:41:45;;;;;;;14.70;5.60;;;1.10;99.90;;;;;;4976273;28;20061;-67
2022/04/02 01:44:17;;;;;;;14.60;6.03;;;1.10;99.90;;;;;;4996249;28;20041;-67
2022/04/02 01:46:45;;;;;;;15.93;6.03;;;1.10;99.90;;;;;;4989419;28;20050;-67
2022/04/02 01:49:13;;;;;;;16.77;6.38;;;1.10;99.90;;;;;;4989972;28;20050;-67
2022/04/02 01:51:41;;;;;;;10.68;5.40;;;1.10;99.90;;;;;;4992470;28;20054;-68
2022/04/02 01:54:14;;;;;;;20.95;6.25;;;1.20;99.90;;;;;;4977192;28;20047;-69
2022/04/02 01:56:42;;;;;;;19.27;6.53;;;1.20;99.90;;;;;;4990743;28;20405;-66
2022/04/02 01:59:10;;;;;;;10.30;5.07;;;1.20;99.90;;;;;;4991460;28;20394;-66
2022/04/02 02:01:38;;;;;;;11.60;6.07;;;1.30;99.90;;;;;;4991981;28;20042;-69
2022/04/02 02:04:06;;;;;;;12.05;5.72;;;1.30;99.90;;;;;;4992676;28;20423;-63
2022/04/02 02:06:38;;;;;;;13.52;5.38;;;1.30;99.90;;;;;;4981647;28;20046;-63
2022/04/02 02:09:10;;;;;;;9.13;5.10;;;1.40;99.90;;;;;;5011934;28;20042;-63
2022/04/02 02:11:55;;;;;;;14.80;5.68;;;1.30;99.90;;;;;;4991339;28;20046;-63
2022/04/02 02:14:36;;;;;;;9.90;5.15;;;1.40;99.90;;;;;;4974740;28;20058;-62
2022/04/02 02:17:15;;;;;;;9.05;5.45;;;1.40;99.90;;;;;;5007117;28;20585;-63
2022/04/02 02:19:46;;;;;;;10.55;5.60;;;1.50;99.90;;;;;;4991066;28;20045;-62
2022/04/02 02:22:14;;;;;;;10.63;5.15;;;1.50;99.90;;;;;;4990569;28;20046;-64
2022/04/02 02:24:42;;;;;;;14.45;5.15;;;1.50;99.90;;;;;;4991022;28;20038;-63
2022/04/02 02:27:10;;;;;;;11.85;5.85;;;1.60;99.90;;;;;;4992077;28;20042;-65
2022/04/02 02:29:38;;;;;;;18.58;5.18;;;1.60;99.90;;;;;;4991069;28;20053;-63
2022/04/02 02:32:17;;;;;;;16.30;5.68;;;1.60;99.90;;;;;;5007193;28;20042;-63
2022/04/02 02:37:32;;;;;;;14.43;6.15;;;1.70;99.90;;;;;;4995907;28;20046;-63
2022/04/02 02:40:09;;;;;;;11.70;5.22;;;1.70;99.90;;;;;;4979520;28;20057;-63
2022/04/02 02:42:37;;;;;;;20.75;6.47;;;1.70;99.90;;;;;;4994286;28;20068;-63
2022/04/02 02:45:25;;;;;;;18.88;6.45;;;1.70;99.90;;;;;;4995040;28;20050;-65
2022/04/02 02:47:59;;;;;;;19.17;7.30;;;1.70;99.90;;;;;;4994078;28;20046;-63
2022/04/02 02:50:47;;;;;;;14.45;6.40;;;1.70;99.90;;;;;;4985059;28;20065;-62
2022/04/02 02:53:17;;;;;;;;;;;1.70;99.90;;;;;;4994940;28;20049;-62
2022/04/02 02:55:50;;;;;;;13.82;5.45;;;1.70;99.90;;;;;;5010464;28;19928;-62
2022/04/02 02:58:19;;;;;;;15.35;6.93;;;1.70;99.90;;;;;;4994722;28;20043;-62
2022/04/02 03:00:46;;;;;;;18.35;6.93;;;1.70;99.90;;;;;;4995457;28;20062;-62
2022/04/02 03:03:22;;;;;;;15.13;6.65;;;1.60;99.90;;;;;;4994055;28;20049;-62
2022/04/02 03:05:52;;;;;;;12.93;6.55;;;1.60;99.90;;;;;;5010377;28;20513;-62
2022/04/02 03:08:22;;;;;;;13.88;7.25;;;1.60;99.90;;;;;;4994027;28;20042;-63
2022/04/02 03:10:55;;;;;;;15.63;6.18;;;1.60;99.90;;;;;;4994078;28;20039;-63
2022/04/02 03:13:27;;;;;;;15.73;7.15;;;1.50;99.90;;;;;;4993993;28;20432;-63
2022/04/02 03:16:07;;;;;;;20.80;6.70;;;1.50;99.90;;;;;;4993757;28;20050;-63
2022/04/02 03:18:42;;;;;;;14.45;6.43;;;1.50;99.90;;;;;;4993859;28;20042;-62
2022/04/02 03:21:16;;;;;;;13.88;6.28;;;1.50;99.90;;;;;;4995477;28;20054;-62
2022/04/02 03:23:44;;;;;;;11.13;6.53;;;1.40;99.90;;;;;;4993862;28;20057;-62
2022/04/02 03:26:15;;;;;;;17.10;6.95;;;1.30;99.90;;;;;;4993940;28;20054;-62
2022/04/02 03:28:43;;;;;;;16.73;6.13;;;1.30;99.90;;;;;;4993592;28;20054;-63
2022/04/02 03:31:12;;;;;;;15.20;6.32;;;1.30;99.90;;;;;;4993835;28;20367;-62
2022/04/02 03:33:42;;;;;;;12.85;6.22;;;1.30;99.90;;;;;;5010116;28;20046;-62
2022/04/02 03:36:11;;;;;;;10.63;6.38;;;1.30;99.90;;;;;;4993512;28;20132;-62
2022/04/02 03:38:41;;;;;;;13.90;5.85;;;1.30;99.90;;;;;;4993622;28;20050;-63
2022/04/02 03:41:15;;;;;;;16.15;5.82;;;1.30;99.90;;;;;;4993467;28;20047;-63
2022/04/02 03:43:46;;;;;;;10.93;6.28;;;1.40;99.90;;;;;;5009990;28;20046;-62
2022/04/02 03:49:05;;;;;;;17.00;6.13;;;1.40;99.90;;;;;;4995754;28;20053;-63
2022/04/02 03:51:33;;;;;;;11.00;5.60;;;1.50;99.90;;;;;;4993234;28;20049;-64
2022/04/02 03:54:09;;;;;;;14.45;6.85;;;1.50;99.90;;;;;;4978912;28;20050;-63
2022/04/02 03:56:41;;;;;;;12.02;6.70;;;1.60;99.90;;;;;;4977997;28;20049;-64
2022/04/02 03:59:12;;;;;;;11.27;5.57;;;1.60;99.90;;;;;;4993394;28;20050;-62
2022/04/02 04:01:44;;;;;;;10.75;5.75;;;1.60;99.90;;;;;;4992966;28;20043;-62
2022/04/02 04:04:14;;;;;;;7.18;5.03;;;1.60;99.90;;;;;;4977296;28;20047;-63
2022/04/02 04:06:42;;;;;;;8.30;5.28;;;1.70;99.90;;;;;;4992971;28;20038;-62
2022/04/02 04:09:11;;;;;;;7.47;5.00;;;1.70;99.90;;;;;;5009407;28;20046;-63
2022/04/02 04:11:43;;;;;;;15.35;5.13;;;1.60;99.90;;;;;;4992676;28;20390;-62
2022/04/02 04:14:12;;;;;;;9.93;4.80;;;1.70;99.90;;;;;;4993823;28;20049;-63
2022/04/02 04:16:42;;;;;;;9.07;5.23;;;1.70;99.90;;;;;;4992618;28;20479;-62
2022/04/02 04:19:10;;;;;;;13.38;5.85;;;1.70;99.90;;;;;;4992874;28;20299;-62
2022/04/02 04:21:38;;;;;;;8.63;5.45;;;1.70;99.90;;;;;;4992715;28;20049;-62
2022/04/02 04:24:08;;;;;;;10.00;5.40;;;1.70;99.90;;;;;;4992767;28;20046;-63
2022/04/02 04:26:37;;;;;;;8.27;5.47;;;1.70;99.90;;;;;;4992622;28;20039;-62
2022/04/02 04:29:05;;;;;;;7.63;5.35;;;1.70;99.90;;;;;;5008603;28;20058;-63
2022/04/02 04:31:34;;;;;;;8.73;6.43;;;1.70;99.90;;;;;;4992520;28;20042;-62
2022/04/02 04:34:03;;;;;;;11.85;4.80;;;1.60;99.90;;;;;;4992718;28;20057;-63
2022/04/02 04:36:31;;;;;;;7.93;4.70;;;1.60;99.90;;;;;;4993680;28;20050;-63
2022/04/02 04:38:58;;;;;;;11.50;5.22;;;1.50;99.90;;;;;;4975644;28;20050;-62
2022/04/02 04:41:33;;;;;;;7.80;5.18;;;1.50;99.90;;;;;;5008079;28;20050;-63
2022/04/02 04:44:03;;;;;;;9.07;4.65;;;1.40;99.90;;;;;;4992140;28;20482;-62
2022/04/02 04:46:39;;;;;;;11.98;6.07;;;1.40;99.90;;;;;;5008032;28;20050;-62
2022/04/02 04:49:10;;;;;;;11.68;6.60;;;1.40;99.90;;;;;;4982681;28;20065;-63
2022/04/02 04:51:40;;;;;;;13.20;6.38;;;1.30;99.90;;;;;;4988812;28;20049;-64
2022/04/02 04:54:08;;;;;;;9.30;5.53;;;1.30;99.90;;;;;;5005356;28;20429;-66
2022/04/02 04:56:40;;;;;;;15.50;5.72;;;1.30;99.90;;;;;;4988106;28;20046;-63
2022/04/02 04:59:09;;;;;;;12.15;5.60;;;1.20;99.90;;;;;;4989022;28;20046;-67
2022/04/02 05:01:37;;;;;;;9.82;5.32;;;1.20;99.90;;;;;;4986767;28;20065;-66
2022/04/02 05:04:08;;;;;;;9.70;5.70;;;1.20;99.90;;;;;;4972830;28;20058;-63
2022/04/02 05:06:42;;;;;;;10.23;5.35;;;1.10;99.90;;;;;;4970029;28;20046;-65
2022/04/02 05:09:12;;;;;;;14.55;5.60;;;1.00;99.90;;;;;;4987682;28;20062;-67
2022/04/02 05:11:43;;;;;;;12.52;5.97;;;1.00;99.90;;;;;;4972926;28;20042;-66
2022/04/02 05:14:14;;;;;;;11.73;6.45;;;0.90;99.90;;;;;;4988513;28;20050;-64
2022/04/02 05:16:46;;;;;;;9.82;5.57;;;0.80;99.90;;;;;;4989220;28;20050;-68
2022/04/02 05:19:14;;;;;;;13.80;6.15;;;0.80;99.90;;;;;;4997550;28;20042;-68
2022/04/02 05:21:42;;;;;;;11.07;5.88;;;0.70;99.90;;;;;;4988785;28;20208;-67
2022/04/02 05:24:14;;;;;;;13.32;6.38;;;0.70;99.90;;;;;;4984314;28;20053;-66
2022/04/02 05:26:47;;;;;;;12.75;6.63;;;0.60;99.90;;;;;;4972165;28;20537;-66
2022/04/02 05:29:17;;;;;;;14.90;5.93;;;0.50;99.90;;;;;;5004103;28;20046;-66
2022/04/02 05:31:44;;;;;;;10.75;6.10;;;0.50;99.90;;;;;;5004347;28;20045;-64
2022/04/02 05:34:12;;;;;;;11.75;6.35;;;0.40;99.90;;;;;;4977482;28;20513;-62
2022/04/02 05:36:42;;;;;;;9.85;5.97;;;0.40;99.90;;;;;;4987711;28;20061;-63
2022/04/02 05:39:10;;;;;;;17.42;6.28;;;0.40;99.90;;;;;;4984591;28;20054;-64
2022/04/02 05:41:38;;;;;;;13.48;5.55;;;0.40;99.90;;;;;;4987553;28;20667;-62
2022/04/02 05:44:09;;;;;;;10.35;5.82;;;0.30;99.90;;;;;;4988282;28;20046;-63
2022/04/02 05:46:37;;;;;;;13.73;5.70;;;0.30;99.90;;;;;;4995019;28;20050;-64
2022/04/02 05:49:05;;;;;;;13.52;5.60;;;0.20;99.90;;;;;;5003349;28;20053;-71
2022/04/02 05:51:33;;;;;;;12.63;5.60;;;0.20;99.90;;;;;;5011392;28;20050;-64
2022/04/02 05:54:00;;;;;;;13.23;5.20;;;0.10;99.90;;;;;;4976119;28;20057;-63
2022/04/02 05:56:28;;;;;;;11.30;5.20;;;0.10;99.90;;;;;;5008945;28;20050;-63
2022/04/02 05:58:56;;;;;;;14.30;6.00;;;0.00;99.90;;;;;;4991267;28;20049;-63
2022/04/02 06:01:24;;;;;;;8.32;5.47;;;0.00;99.90;;;;;;5006563;28;20038;-63
2022/04/02 06:03:52;;;;;;;15.10;5.70;;;0.00;99.90;;;;;;5004883;28;20050;-65
2022/04/02 06:06:20;;;;;;;14.77;5.72;;;0.00;99.90;;;;;;5006490;28;20037;-66
2022/04/02 06:08:48;;;;;;;16.20;6.25;;;0.00;99.90;;;;;;5007690;28;20060;-66
2022/04/02 06:11:15;;;;;;;24.33;7.30;;;0.00;99.90;;;;;;4990863;28;20524;-67
2022/04/02 06:13:43;;;;;;;16.60;7.72;;;0.00;99.90;;;;;;5005564;28;20061;-67
2022/04/02 06:16:11;;;;;;;19.90;7.43;;;0.00;99.90;;;;;;5007756;28;20210;-66
2022/04/02 06:18:39;;;;;;;14.68;5.65;;;0.10;99.90;;;;;;5001790;28;20042;-67
2022/04/02 06:21:07;;;;;;;19.50;6.03;;;0.10;99.90;;;;;;4984966;28;20072;-68
2022/04/02 06:23:34;;;;;;;16.50;6.85;;;0.10;99.90;;;;;;5009217;28;20045;-65
2022/04/02 06:26:02;;;;;;;10.88;6.13;;;0.10;99.90;;;;;;5010627;28;20064;-67
2022/04/02 06:28:30;;;;;;;19.40;6.80;;;0.10;99.90;;;;;;4995759;28;20046;-67
2022/04/02 06:30:58;;;;;;;10.57;5.47;;;0.20;99.90;;;;;;4986586;28;20061;-66
2022/04/02 06:33:33;;;;;;;22.35;7.00;;;0.20;99.90;;;;;;4982713;28;20478;-65
2022/04/02 06:36:02;;;;;;;19.73;6.35;;;0.20;99.90;;;;;;4989120;28;20049;-63
2022/04/02 06:38:30;;;;;;;18.20;6.88;;;0.20;99.90;;;;;;4985958;28;20040;-64
2022/04/02 06:40:58;;;;;;;19.25;6.88;;;0.20;99.90;;;;;;5004161;28;20512;-62
2022/04/02 06:43:31;;;;;;;13.57;6.10;;;0.20;99.90;;;;;;4989071;28;20053;-64
2022/04/02 06:46:04;;;;;;;14.73;6.93;;;0.30;99.90;;;;;;4986798;28;20046;-63
2022/04/02 06:48:33;;;;;;;18.45;8.05;;;0.30;99.90;;;;;;5003837;28;20034;-64
2022/04/02 06:51:01;;;;;;;16.20;7.68;;;0.30;99.90;;;;;;4989714;28;20305;-63
2022/04/02 06:53:29;;;;;;;16.40;7.40;;;0.30;99.90;;;;;;4990661;28;20058;-62
2022/04/02 06:55:57;;;;;;;14.98;6.85;;;0.30;99.90;;;;;;4990322;28;20425;-63
2022/04/02 06:58:28;;;;;;;15.15;6.82;;;0.40;99.90;;;;;;5002968;28;20485;-62
2022/04/02 07:00:56;;;;;;;25.80;7.28;;;0.40;99.90;;;;;;4989337;28;20042;-63
2022/04/02 07:03:24;;;;;;;17.73;7.38;;;0.40;99.90;;;;;;5001262;28;20532;-63
2022/04/02 07:05:53;;;;;;;21.02;6.88;;;0.50;99.90;;;;;;5005178;28;20050;-64
2022/04/02 07:08:20;;;;;;;13.20;6.70;;;0.40;99.90;;;;;;5006564;28;20477;-63
2022/04/02 07:10:48;;;;;;;13.95;6.43;;;0.50;99.90;;;;;;4973315;28;20057;-64
2022/04/02 07:13:16;;;;;;;17.90;7.15;;;0.50;99.90;;;;;;5003412;28;20513;-65
2022/04/02 07:15:44;;;;;;;15.05;6.93;;;0.50;99.90;;;;;;5004548;28;20057;-67
2022/04/02 07:18:12;;;;;;;26.15;9.43;;;0.50;99.90;;;;;;4987582;28;20049;-66
2022/04/02 07:20:41;;;;;;;12.68;7.75;;;0.60;99.90;;;;;;4997478;28;20406;-63
2022/04/02 07:23:09;;;;;;;13.98;6.65;;;0.60;99.90;;;;;;5002028;28;20053;-64
2022/04/02 07:25:40;;;;;;;12.38;6.18;;;0.80;99.90;;;;;;5007706;28;20053;-62
2022/04/02 07:28:08;;;;;;;11.07;6.10;;;0.90;99.90;;;;;;5001897;28;20050;-67
2022/04/02 07:30:38;;;;;;;16.58;6.22;;;1.00;99.90;;;;;;5008736;28;20310;-65
2022/04/02 07:33:06;;;;;;;15.15;6.55;;;1.10;99.90;;;;;;4998018;28;20057;-67
2022/04/02 07:35:55;;;;;;;10.60;6.63;;;1.20;99.90;;;;;;5004943;28;20045;-62
2022/04/02 07:38:45;;;;;;;14.15;6.70;;;1.30;99.90;;;;;;5004410;28;20074;-63
2022/04/02 07:41:33;;;;;;;11.95;6.45;;;1.40;99.90;;;;;;4993160;28;20115;-65
2022/04/02 07:44:17;;;;;;;12.98;6.07;;;1.50;99.90;;;;;;5001250;28;20053;-63
2022/04/02 07:46:47;;;;;;;19.23;6.78;;;1.60;99.90;;;;;;4981829;28;20057;-63
2022/04/02 07:49:20;;;;;;;13.15;6.38;;;1.70;99.90;;;;;;4995303;28;20053;-66
2022/04/02 07:51:52;;;;;;;22.17;7.00;;;1.80;99.90;;;;;;5010297;28;20413;-66
2022/04/02 07:54:26;;;;;;;19.38;7.55;;;1.90;99.90;;;;;;4983505;28;20053;-63
2022/04/02 07:57:02;;;;;;;13.02;6.78;;;2.00;99.90;;;;;;4992846;28;20061;-63
2022/04/02 07:59:39;;;;;;;17.98;7.15;;;2.20;99.90;;;;;;5004331;28;20501;-63
2022/04/02 08:05:00;;;;;;;14.23;7.88;;;2.30;99.90;;;;;;5000765;28;20058;-63
2022/04/02 08:07:30;;;;;;;20.30;7.70;;;2.50;99.90;;;;;;4987884;28;20053;-63
2022/04/02 08:09:58;;;;;;;;;;;2.60;99.90;;;;;;5009770;28;20046;-63
2022/04/02 08:12:26;;;;;;;19.95;7.97;;;2.70;99.90;;;;;;4989910;28;19932;-63
2022/04/02 08:14:54;;;;;;;24.98;9.18;;;2.90;99.90;;;;;;4977210;28;20050;-62
2022/04/02 08:17:22;;;;;;;16.75;8.38;;;3.00;99.90;;;;;;4993953;28;20046;-63
2022/04/02 08:19:50;;;;;;;19.58;8.80;;;3.10;99.90;;;;;;5002482;28;20053;-63
2022/04/02 08:22:20;;;;;;;15.40;8.48;;;3.20;99.90;;;;;;4976330;28;20057;-62
2022/04/02 08:24:48;;;;;;;20.77;10.30;;;3.30;99.90;;;;;;4992710;28;20038;-62
2022/04/02 08:27:33;;;;;;;22.08;9.77;;;3.40;99.90;;;;;;5010378;28;20057;-62
2022/04/02 08:30:11;;;;;;;14.00;8.25;;;3.60;99.90;;;;;;4992499;28;20061;-62
2022/04/02 08:32:57;;;;;;;18.02;8.38;;;3.70;99.90;;;;;;4991575;28;20050;-62
2022/04/02 08:35:41;;;;;;;15.75;8.00;;;3.90;99.90;;;;;;4998893;28;20053;-62
2022/04/02 08:38:19;;;;;;;17.30;8.20;;;4.00;99.90;;;;;;4999560;28;20520;-62
2022/04/02 08:41:12;;;;;;;9.85;4.93;;;4.10;99.90;;;;;;5010044;28;20052;-62
2022/04/02 08:43:55;;;;;;;18.48;7.35;;;4.20;99.90;;;;;;5009858;28;20049;-63
2022/04/02 08:46:37;;;;;;;16.10;7.20;;;4.30;99.90;;;;;;4992647;28;20058;-63
2022/04/02 08:49:25;;;;;;;9.80;5.30;;;4.40;99.90;;;;;;5009501;28;20046;-62
2022/04/02 08:52:14;;;;;;;8.23;3.72;;;4.60;99.90;;;;;;4987946;28;20407;-64
2022/04/02 08:55:07;;;;;;;9.00;4.43;;;4.70;99.90;;;;;;4987022;28;20050;-62
2022/04/02 08:57:50;;;;;;;7.82;3.65;;;4.90;99.90;;;;;;4994222;28;20413;-62
2022/04/02 09:00:24;;;;;;;8.45;3.90;;;5.00;99.90;;;;;;5009606;28;20054;-63
2022/04/02 09:03:10;;;;;;;9.57;3.92;;;5.10;99.90;;;;;;5006499;28;20508;-62
2022/04/02 09:05:57;;;;;;;12.38;5.07;;;5.20;99.90;;;;;;4994826;28;20057;-62
2022/04/02 09:08:46;;;;;;;8.52;4.80;;;5.30;99.90;;;;;;5001048;28;20608;-62
2022/04/02 09:11:26;;;;;;;7.40;4.38;;;5.30;99.90;;;;;;5009619;28;20050;-62
2022/04/02 09:14:36;;;;;;;7.18;3.88;;;5.40;99.90;;;;;;5009008;28;20481;-62
2022/04/02 09:17:13;;;;;;;10.98;3.70;;;5.50;99.90;;;;;;4991782;28;20409;-62
2022/04/02 09:19:52;;;;;;;7.15;3.05;;;5.60;99.90;;;;;;5006849;28;20042;-64
2022/04/02 09:23:04;;;;;;;3.30;2.08;;;5.70;99.90;;;;;;4992517;28;20050;-64
2022/04/02 09:25:51;;;;;;;3.42;1.75;;;5.90;99.90;;;;;;4973250;28;20066;-63
2022/04/02 09:28:40;;;;;;;5.28;1.58;;;6.00;99.90;;;;;;5008927;28;20057;-63
2022/04/02 09:31:26;;;;;;;5.93;1.40;;;6.10;99.90;;;;;;5009097;28;20213;-64
2022/04/02 09:34:27;;;;;;;7.15;1.63;;;6.20;99.90;;;;;;5008886;28;20468;-63
2022/04/02 09:37:14;;;;;;;5.10;1.70;;;6.30;99.90;;;;;;4956848;28;20050;-64
2022/04/02 09:40:09;;;;;;;6.35;0.80;;;6.40;99.90;;;;;;4989207;28;20042;-64
2022/04/02 09:42:45;;;;;;;1.40;0.80;;;6.50;99.90;;;;;;4976976;28;20065;-65
2022/04/02 09:45:16;;;;;;;4.13;2.10;;;6.60;99.90;;;;;;5009017;28;20057;-64
2022/04/02 09:48:12;;;;;;;5.32;0.77;;;6.70;99.90;;;;;;5008728;28;20045;-67
2022/04/02 09:50:41;;;;;;;1.83;0.50;;;6.80;99.90;;;;;;5001078;28;20046;-67
2022/04/02 09:53:19;;;;;;;1.58;0.70;;;6.90;99.90;;;;;;4998573;28;20068;-64
2022/04/02 09:56:11;;;;;;;1.33;0.60;;;7.00;99.90;;;;;;5008789;28;20045;-65
2022/04/02 09:58:58;;;;;;;1.33;0.60;;;7.00;99.90;;;;;;4995128;28;20060;-64
2022/04/02 10:01:50;;;;;;;2.97;0.70;;;7.10;99.90;;;;;;5006930;28;20053;-65
2022/04/02 10:04:40;;;;;;;2.97;1.02;;;7.20;99.90;;;;;;4994144;28;20485;-67
2022/04/02 10:07:19;;;;;;;3.03;1.27;;;7.30;99.90;;;;;;4989327;28;20054;-64
2022/04/02 10:09:53;;;;;;;2.33;1.50;;;7.40;99.90;;;;;;5008636;28;20046;-64
2022/04/02 10:12:24;;;;;;;3.67;0.98;;;7.60;99.90;;;;;;4990835;28;20520;-65
2022/04/02 10:14:58;;;;;;;4.15;1.70;;;7.70;99.90;;;;;;4990899;28;20626;-65
2022/04/02 10:17:30;;;;;;;2.63;1.58;;;7.90;99.90;;;;;;5008434;28;20057;-66
2022/04/02 10:19:59;;;;;;;4.03;1.52;;;7.90;99.90;;;;;;4990702;28;20496;-65
2022/04/02 10:22:43;;;;;;;4.07;1.60;;;7.90;99.90;;;;;;4992159;28;20497;-67
2022/04/02 10:25:13;;;;;;;4.40;1.60;;;7.80;99.70;;;;;;5008307;28;20250;-67
2022/04/02 10:27:44;;;;;;;;;;;7.80;99.90;;;;;;5008742;28;20053;-63
2022/04/02 10:30:13;;;;;;;3.17;1.35;;;7.90;99.90;;;;;;5008469;28;19925;-63
2022/04/02 10:32:52;;;;;;;1.92;1.10;;;8.10;99.50;;;;;;4990658;28;20050;-62
2022/04/02 10:35:22;;;;;;;2.25;1.35;;;8.30;99.50;;;;;;5004718;28;20046;-66
2022/04/02 10:37:56;;;;;;;7.00;1.70;;;8.50;98.20;;;;;;4994978;28;20050;-61
2022/04/02 10:40:26;;;;;;;2.55;1.15;;;8.70;97.40;;;;;;5008469;28;20508;-62
2022/04/02 10:43:06;;;;;;;3.90;1.15;;;8.80;96.80;;;;;;5008269;28;20053;-63
2022/04/02 10:45:41;;;;;;;4.13;1.38;;;8.90;96.90;;;;;;5008353;28;20490;-63
2022/04/02 10:48:14;;;;;;;2.22;1.10;;;9.10;96.20;;;;;;5008065;28;20521;-62
2022/04/02 10:50:44;;;;;;;3.42;1.48;;;9.30;94.90;;;;;;5003916;28;20379;-62
2022/04/02 10:53:13;;;;;;;3.67;1.30;;;9.40;92.90;;;;;;4997883;28;20065;-63
2022/04/02 10:55:47;;;;;;;2.80;1.27;;;9.60;93.10;;;;;;5010335;28;20062;-63
2022/04/02 10:58:20;;;;;;;1.58;0.95;;;9.70;91.60;;;;;;5011895;28;20046;-63
2022/04/02 11:00:48;;;;;;;2.08;1.15;;;9.90;91.20;;;;;;5011956;28;20050;-64
2022/04/02 11:03:39;;;;;;;5.60;1.38;;;9.80;90.80;;;;;;4993921;28;20053;-62
2022/04/02 11:06:08;;;;;;;3.58;1.10;;;9.80;90.80;;;;;;5002285;28;20498;-67
2022/04/02 11:08:37;;;;;;;3.58;1.10;;;9.80;91.50;;;;;;5001155;28;20046;-65
2022/04/02 11:11:21;;;;;;;4.63;1.30;;;9.90;90.80;;;;;;5009298;28;20041;-66
2022/04/02 11:14:01;;;;;;;1.90;0.70;;;10.10;87.10;;;;;;5008220;28;20049;-68
2022/04/02 11:16:40;;;;;;;2.60;0.60;;;10.30;83.70;;;;;;5008794;28;20050;-67
2022/04/02 11:22:38;;;;;;;2.88;1.33;;;10.40;77.20;;;;;;4999063;28;20050;-64
2022/04/02 11:25:09;;;;;;;1.10;0.80;;;10.60;78.70;;;;;;4968042;28;20134;-63
2022/04/02 11:27:38;;;;;;;2.63;0.70;;;10.90;78.50;;;;;;4996004;28;20054;-63
2022/04/02 11:30:10;;;;;;;1.85;0.90;;;11.00;77.00;;;;;;5011495;28;20390;-64
2022/04/02 11:32:39;;;;;;;1.45;0.88;;;11.10;77.10;;;;;;5008115;28;20056;-61
2022/04/02 11:35:09;;;;;;;1.23;0.85;;;11.10;74.80;;;;;;5008178;28;20046;-64
2022/04/02 11:37:49;;;;;;;1.63;0.80;;;10.90;73.40;;;;;;4980377;28;20426;-62
2022/04/02 11:40:19;;;;;;;2.33;0.73;;;10.70;75.00;;;;;;5011139;28;20516;-62
2022/04/02 11:42:48;;;;;;;3.63;0.88;;;10.50;75.50;;;;;;5010764;28;20057;-64
2022/04/02 11:45:20;;;;;;;1.90;0.80;;;10.40;77.20;;;;;;5011216;28;20498;-62
2022/04/02 11:47:50;;;;;;;4.32;1.00;;;10.20;77.90;;;;;;5010983;28;20058;-61
2022/04/02 11:50:27;;;;;;;;;;;10.00;77.70;;;;;;5011371;28;20038;-61
2022/04/02 11:52:57;;;;;;;1.38;0.93;;;9.80;79.00;;;;;;4980824;28;19921;-60
2022/04/02 11:55:27;;;;;;;4.45;0.90;;;9.60;79.40;;;;;;5011251;28;20049;-61
2022/04/02 11:58:09;;;;;;;4.97;0.70;;;9.40;79.50;;;;;;5010760;28;20153;-63
2022/04/02 12:00:41;;;;;;;5.13;0.93;;;9.30;80.20;;;;;;4992704;28;20053;-61
2022/04/02 12:03:23;;;;;;;3.03;0.57;;;9.20;81.20;;;;;;5010237;28;20390;-62
2022/04/02 12:05:52;;;;;;;2.08;0.90;;;9.10;81.60;;;;;;5009282;28;20042;-62
2022/04/02 12:08:31;;;;;;;2.35;0.60;;;9.00;78.30;;;;;;5000767;28;20057;-64
2022/04/02 12:11:00;;;;;;;1.98;0.75;;;9.00;79.10;;;;;;4993216;28;20050;-63
2022/04/02 12:13:28;;;;;;;6.53;1.02;;;8.90;79.80;;;;;;5010105;28;20053;-62
2022/04/02 12:16:13;;;;;;;3.08;0.77;;;8.90;80.80;;;;;;5010760;28;20049;-62
2022/04/02 12:18:56;;;;;;;2.78;0.77;;;8.90;80.60;;;;;;5010375;28;20049;-63
2022/04/02 12:21:42;;;;;;;2.08;0.88;;;9.00;80.00;;;;;;5005956;28;20545;-63
2022/04/02 12:24:11;;;;;;;3.17;1.27;;;9.00;81.20;;;;;;5007467;28;20397;-62
2022/04/02 12:26:39;;;;;;;1.63;0.80;;;9.00;80.30;;;;;;5010247;28;20046;-66
2022/04/02 12:29:07;;;;;;;2.53;0.80;;;9.10;81.30;;;;;;5010116;28;20045;-66
2022/04/02 12:31:35;;;;;;;1.58;1.20;;;9.20;79.70;;;;;;5010177;28;20517;-62
2022/04/02 12:34:04;;;;;;;3.05;1.00;;;9.30;80.50;;;;;;5009955;28;20048;-62
2022/04/02 12:36:38;;;;;;;4.07;1.27;;;9.30;80.60;;;;;;5004858;28;20394;-65
2022/04/02 12:39:10;;;;;;;12.57;5.85;;;9.30;81.40;;;;;;5005988;28;20141;-66
2022/04/02 12:41:50;;;;;;;7.63;2.22;;;9.40;81.90;;;;;;5010155;28;20500;-66
2022/04/02 12:44:22;;;;;;;3.10;1.70;;;9.40;82.10;;;;;;4992467;28;20046;-65
2022/04/02 12:46:51;;;;;;;3.58;1.10;;;9.40;81.40;;;;;;4989162;28;20054;-62
2022/04/02 12:49:30;;;;;;;7.78;1.98;;;9.40;79.60;;;;;;5002159;28;20363;-62
2022/04/02 12:52:18;;;;;;;1.65;0.88;;;9.40;79.80;;;;;;4971139;28;20043;-64
2022/04/02 12:54:50;;;;;;;6.40;2.45;;;9.50;77.20;;;;;;4970963;28;20074;-65
2022/04/02 12:57:19;;;;;;;2.92;0.93;;;9.60;79.00;;;;;;4972142;28;20055;-63
2022/04/02 12:59:55;;;;;;;2.25;0.80;;;9.90;79.30;;;;;;4988855;28;20047;-66
2022/04/02 13:02:25;;;;;;;3.60;1.30;;;10.20;78.10;;;;;;4989855;28;20073;-63
2022/04/02 13:05:02;;;;;;;3.33;1.00;;;10.30;75.80;;;;;;4990023;28;20069;-65
2022/04/02 13:07:31;;;;;;;7.05;1.20;;;10.50;77.10;;;;;;4981835;28;20096;-65
2022/04/02 13:10:07;;;;;;;3.92;0.93;;;10.70;74.60;;;;;;4990120;28;20045;-65
2022/04/02 13:12:36;;;;;;;2.50;0.90;;;10.70;73.50;;;;;;4989694;28;20051;-66
2022/04/02 13:15:09;;;;;;;2.58;1.38;;;10.80;74.30;;;;;;4988940;28;20058;-63
2022/04/02 13:20:37;;;;;;;1.40;0.90;;;10.90;75.10;;;;;;4989995;28;20053;-65
2022/04/02 13:23:48;;;;;;;3.15;0.88;;;11.50;79.00;;;;;;4994658;28;20047;-66
2022/04/02 13:26:21;;;;;;;5.43;0.95;;;12.20;75.10;;;;;;4970351;28;20570;-66
2022/04/02 13:28:54;;;;;;;2.05;0.70;;;13.20;76.90;;;;;;4983316;28;20048;-65
2022/04/02 13:31:29;;;;;;;2.05;1.15;;;14.00;71.80;;;;;;4988359;28;20042;-66
2022/04/02 13:34:17;;;;;;;5.40;1.30;;;14.70;65.50;;;;;;4989352;28;20494;-66
2022/04/02 13:37:05;;;;;;;3.70;1.10;;;15.30;59.80;;;;;;4985719;28;20061;-66
2022/04/02 13:39:54;;;;;;;2.17;1.05;;;15.70;59.10;;;;;;4970177;28;20038;-62
2022/04/02 13:42:29;;;;;;;4.03;1.25;;;15.70;54.40;;;;;;4972159;28;20054;-62